Time;durP1;ratioP1;P1;durP2;ratioP2;P2;SDS_P1;SDS_P2;PMS_P1;PMS_P2;Temp;Humidity;BMP_temperature;BMP_pressure;BME280_temperature;BME280_humidity;BME280_pressure;Samples;Min_cycle;Max_cycle;Signal;HPM_P1;HPM_P2
2023/11/11 00:00:47;;;;;;;3.40;1.60;;;6.00;99.90;;;;;;5014896;28;20438;-45
2023/11/11 00:03:14;;;;;;;2.63;1.20;;;6.00;99.90;;;;;;5014505;28;20473;-46
2023/11/11 00:05:41;;;;;;;2.70;1.30;;;6.00;99.90;;;;;;5012930;28;20500;-46
2023/11/11 00:08:09;;;;;;;2.80;1.37;;;5.90;99.90;;;;;;5014006;28;20406;-45
2023/11/11 00:10:35;;;;;;;1.50;0.90;;;5.90;99.90;;;;;;5018795;28;20466;-45
2023/11/11 00:13:03;;;;;;;2.10;1.17;;;5.80;99.90;;;;;;5019837;28;20445;-45
2023/11/11 00:15:28;;;;;;;1.53;1.10;;;5.90;99.90;;;;;;5019895;28;20475;-46
2023/11/11 00:17:54;;;;;;;1.80;0.90;;;5.80;99.90;;;;;;5018932;28;20532;-46
2023/11/11 00:20:21;;;;;;;4.00;1.40;;;5.80;99.90;;;;;;5020236;28;20373;-46
2023/11/11 00:22:49;;;;;;;4.40;1.27;;;5.80;1.00;;;;;;5020858;28;20480;-46
2023/11/11 00:25:17;;;;;;;2.60;1.40;;;5.70;1.00;;;;;;5019856;28;20734;-46
2023/11/11 00:27:44;;;;;;;2.10;1.30;;;5.70;1.00;;;;;;5020227;28;20840;-46
2023/11/11 00:30:11;;;;;;;2.10;1.27;;;5.70;1.00;;;;;;5018985;28;20428;-46
2023/11/11 00:32:37;;;;;;;3.80;1.20;;;5.70;1.00;;;;;;5018668;28;20491;-46
2023/11/11 00:35:05;;;;;;;2.70;1.60;;;5.70;1.00;;;;;;5019619;28;20733;-45
2023/11/11 00:37:31;;;;;;;2.00;0.97;;;5.70;1.00;;;;;;5018960;28;20358;-46
2023/11/11 00:39:58;;;;;;;3.10;1.90;;;5.70;1.00;;;;;;5018303;28;20437;-46
2023/11/11 00:42:24;;;;;;;1.70;1.10;;;5.70;1.00;;;;;;5018064;28;20219;-46
2023/11/11 00:44:50;;;;;;;1.60;1.33;;;5.70;1.00;;;;;;5020193;28;20433;-46
2023/11/11 00:47:16;;;;;;;1.40;1.10;;;5.70;1.00;;;;;;5020708;28;20174;-45
2023/11/11 00:49:42;;;;;;;1.47;1.10;;;5.70;1.00;;;;;;5021179;28;20686;-46
2023/11/11 00:52:08;;;;;;;2.80;1.33;;;5.70;1.00;;;;;;5018716;28;20518;-46
2023/11/11 00:54:34;;;;;;;1.70;1.10;;;5.70;1.00;;;;;;5018804;28;20511;-46
2023/11/11 00:57:00;;;;;;;1.63;1.00;;;5.80;1.00;;;;;;5020158;28;20752;-46
2023/11/11 00:59:26;;;;;;;3.50;0.87;;;5.80;1.00;;;;;;5020163;28;20453;-45
2023/11/11 01:01:52;;;;;;;3.00;0.93;;;5.80;1.00;;;;;;5018817;28;20444;-46
2023/11/11 01:04:18;;;;;;;1.23;0.83;;;5.90;1.00;;;;;;5020900;28;20465;-45
2023/11/11 01:06:43;;;;;;;2.80;1.07;;;5.90;1.00;;;;;;5020939;28;20187;-46
2023/11/11 01:09:13;;;;;;;0.93;0.60;;;5.90;1.00;;;;;;5021045;28;20529;-46
2023/11/11 01:11:40;;;;;;;2.13;0.83;;;6.00;1.00;;;;;;5021820;28;20198;-45
2023/11/11 01:14:06;;;;;;;1.67;0.90;;;6.00;1.00;;;;;;5021805;28;20476;-46
2023/11/11 01:16:31;;;;;;;1.20;0.70;;;6.10;1.00;;;;;;5020127;28;20433;-45
2023/11/11 01:18:57;;;;;;;1.23;1.10;;;6.10;1.00;;;;;;5019841;28;20323;-44
2023/11/11 01:21:23;;;;;;;1.10;0.73;;;6.20;1.00;;;;;;5016896;28;20250;-45
2023/11/11 01:23:49;;;;;;;1.57;0.70;;;6.20;99.90;;;;;;5018961;28;20477;-44
2023/11/11 01:26:15;;;;;;;1.53;0.80;;;6.30;99.90;;;;;;5019196;28;20239;-44
2023/11/11 01:28:40;;;;;;;1.10;0.60;;;6.30;99.90;;;;;;5018639;28;20187;-44
2023/11/11 01:31:06;;;;;;;1.50;0.87;;;6.30;99.90;;;;;;5018324;28;20506;-45
2023/11/11 01:33:32;;;;;;;0.90;0.40;;;6.30;99.90;;;;;;5018757;28;20245;-44
2023/11/11 01:36:01;;;;;;;1.00;0.57;;;6.30;99.90;;;;;;5018564;28;20517;-45
2023/11/11 01:38:27;;;;;;;1.20;0.67;;;6.30;99.90;;;;;;5018474;28;20656;-44
2023/11/11 01:40:52;;;;;;;1.40;0.60;;;6.30;14.50;;;;;;5017775;28;20428;-45
2023/11/11 01:43:18;;;;;;;1.53;0.70;;;6.30;15.10;;;;;;5033478;28;20470;-45
2023/11/11 01:45:44;;;;;;;1.17;0.80;;;6.30;42.40;;;;;;5017830;28;20176;-45
2023/11/11 01:48:18;;;;;;;1.37;0.87;;;6.30;18.90;;;;;;5018129;28;20187;-44
2023/11/11 01:50:44;;;;;;;1.33;0.70;;;6.30;19.80;;;;;;5018609;28;20178;-38
2023/11/11 01:53:12;;;;;;;1.17;0.77;;;6.30;16.90;;;;;;5018813;28;20491;-39
2023/11/11 01:55:38;;;;;;;1.13;0.60;;;6.30;1.00;;;;;;5017162;28;20876;-39
2023/11/11 01:58:04;;;;;;;1.10;0.70;;;6.40;1.00;;;;;;5018512;28;20768;-42
2023/11/11 02:00:36;;;;;;;1.63;0.70;;;6.40;1.00;;;;;;5017793;28;20512;-38
2023/11/11 02:03:02;;;;;;;1.80;0.53;;;6.50;1.00;;;;;;5017146;28;20496;-40
2023/11/11 02:05:28;;;;;;;1.00;0.63;;;6.50;1.00;;;;;;5017945;28;20812;-40
2023/11/11 02:07:57;;;;;;;1.63;0.80;;;6.50;1.00;;;;;;5018657;28;20421;-38
2023/11/11 02:10:24;;;;;;;0.83;0.50;;;6.50;1.00;;;;;;5017160;28;20836;-41
2023/11/11 02:12:49;;;;;;;2.43;0.90;;;6.50;1.00;;;;;;5015963;28;20438;-37
2023/11/11 02:15:15;;;;;;;1.63;0.67;;;6.40;1.00;;;;;;5016511;28;20431;-39
2023/11/11 02:17:41;;;;;;;4.97;0.97;;;6.40;1.00;;;;;;5017252;28;20191;-39
2023/11/11 02:20:11;;;;;;;1.10;0.70;;;6.40;1.00;;;;;;5033334;28;20207;-40
2023/11/11 02:22:38;;;;;;;0.90;0.50;;;6.40;1.00;;;;;;5016255;28;20243;-39
2023/11/11 02:25:06;;;;;;;1.57;0.80;;;6.40;23.60;;;;;;5016340;28;20956;-37
2023/11/11 02:27:32;;;;;;;1.17;0.70;;;6.30;17.80;;;;;;5017247;28;20434;-39
2023/11/11 02:29:58;;;;;;;1.47;0.80;;;6.30;20.00;;;;;;5015577;28;20430;-40
2023/11/11 02:32:23;;;;;;;1.23;0.90;;;6.30;15.00;;;;;;5014783;28;20183;-38
2023/11/11 02:34:50;;;;;;;1.83;1.10;;;6.30;26.50;;;;;;5017078;28;20429;-38
2023/11/11 02:37:16;;;;;;;2.13;0.87;;;6.30;56.00;;;;;;5016556;28;20257;-38
2023/11/11 02:39:41;;;;;;;1.60;0.80;;;6.30;99.90;;;;;;5016780;28;20430;-38
2023/11/11 02:42:07;;;;;;;4.63;0.60;;;6.30;99.90;;;;;;5017448;28;20258;-40
2023/11/11 02:44:33;;;;;;;1.00;0.60;;;6.20;99.90;;;;;;5017751;28;20341;-39
2023/11/11 02:46:58;;;;;;;1.00;0.50;;;6.20;99.90;;;;;;5016437;28;20575;-38
2023/11/11 02:49:24;;;;;;;1.10;0.60;;;6.20;99.90;;;;;;5017500;28;20426;-38
2023/11/11 02:51:49;;;;;;;0.90;0.60;;;6.20;99.90;;;;;;5017832;28;20418;-37
2023/11/11 02:54:15;;;;;;;0.90;0.70;;;6.20;99.90;;;;;;5017707;28;20230;-38
2023/11/11 02:56:41;;;;;;;1.20;0.60;;;6.20;99.90;;;;;;5016937;28;20179;-39
2023/11/11 02:59:06;;;;;;;3.33;1.00;;;6.30;99.90;;;;;;5016291;28;20522;-39
2023/11/11 03:01:35;;;;;;;1.20;0.77;;;6.70;1.00;;;;;;5017633;28;20587;-37
2023/11/11 03:04:02;;;;;;;1.23;0.97;;;7.10;99.90;;;;;;5016490;28;20312;-38
2023/11/11 03:06:27;;;;;;;1.50;0.63;;;7.30;99.90;;;;;;5017776;28;20458;-40
2023/11/11 03:08:53;;;;;;;2.90;0.70;;;7.50;93.00;;;;;;5017306;28;20475;-38
2023/11/11 03:11:19;;;;;;;3.80;0.70;;;7.70;1.00;;;;;;5016522;28;20271;-39
2023/11/11 03:13:45;;;;;;;1.17;0.50;;;7.30;99.90;;;;;;5016962;28;20210;-39
2023/11/11 03:16:11;;;;;;;1.30;0.70;;;7.00;99.90;;;;;;5016676;28;20573;-38
2023/11/11 03:18:38;;;;;;;0.90;0.47;;;6.80;1.00;;;;;;5015857;28;20434;-40
2023/11/11 03:21:04;;;;;;;1.33;0.80;;;6.70;1.00;;;;;;5017241;28;20437;-38
2023/11/11 03:23:30;;;;;;;1.43;0.80;;;6.60;1.00;;;;;;5016779;28;20466;-38
2023/11/11 03:25:56;;;;;;;0.97;0.73;;;6.50;1.00;;;;;;5017582;28;20416;-38
2023/11/11 03:28:22;;;;;;;2.40;0.90;;;6.50;1.00;;;;;;5016684;28;20779;-38
2023/11/11 03:30:48;;;;;;;1.00;0.60;;;6.50;1.00;;;;;;5016667;28;20183;-38
2023/11/11 03:33:14;;;;;;;1.10;0.70;;;6.50;1.00;;;;;;5015401;28;20191;-39
2023/11/11 03:35:39;;;;;;;3.00;1.17;;;6.50;1.00;;;;;;5016724;28;20273;-38
2023/11/11 03:38:09;;;;;;;1.20;0.90;;;6.50;1.00;;;;;;5016419;28;20553;-38
2023/11/11 03:40:35;;;;;;;1.10;0.77;;;6.50;1.00;;;;;;5016193;28;20187;-38
2023/11/11 03:43:01;;;;;;;1.07;0.77;;;6.50;1.00;;;;;;5016580;28;20893;-39
2023/11/11 03:45:27;;;;;;;1.43;1.03;;;6.40;1.00;;;;;;5015769;28;20854;-39
2023/11/11 03:47:52;;;;;;;1.50;1.20;;;6.40;1.00;;;;;;5016558;28;20540;-41
2023/11/11 03:50:18;;;;;;;1.43;1.10;;;6.40;1.00;;;;;;5015512;28;20171;-39
2023/11/11 03:52:44;;;;;;;1.50;0.80;;;6.40;1.00;;;;;;5014968;28;20195;-37
2023/11/11 03:55:10;;;;;;;1.13;0.80;;;6.40;1.00;;;;;;5015947;28;20298;-37
2023/11/11 03:57:35;;;;;;;1.37;1.10;;;6.30;1.00;;;;;;5015417;28;20266;-39
2023/11/11 04:00:08;;;;;;;1.70;0.90;;;6.30;1.00;;;;;;5014990;28;20194;-40
2023/11/11 04:02:34;;;;;;;1.57;0.93;;;6.20;22.30;;;;;;5012863;28;20485;-39
2023/11/11 04:04:59;;;;;;;1.80;0.80;;;6.30;1.00;;;;;;5015355;28;20410;-39
2023/11/11 04:07:25;;;;;;;1.20;0.80;;;6.20;1.00;;;;;;5016174;28;20191;-38
2023/11/11 04:09:51;;;;;;;1.30;0.90;;;6.20;14.30;;;;;;5014873;28;20473;-40
2023/11/11 04:12:17;;;;;;;1.40;0.80;;;6.10;40.60;;;;;;5014872;28;20270;-39
2023/11/11 04:14:42;;;;;;;1.03;0.80;;;6.10;99.90;;;;;;5014296;28;20525;-39
2023/11/11 04:17:08;;;;;;;0.87;0.73;;;6.00;95.10;;;;;;5014670;28;20210;-38
2023/11/11 04:19:34;;;;;;;1.30;1.00;;;6.00;99.90;;;;;;5014121;28;20179;-39
2023/11/11 04:21:59;;;;;;;1.93;1.23;;;6.00;99.90;;;;;;5014389;28;20194;-39
2023/11/11 04:24:25;;;;;;;1.33;0.97;;;6.00;99.90;;;;;;5015041;28;20207;-38
2023/11/11 04:26:51;;;;;;;1.30;1.10;;;6.00;99.90;;;;;;5015000;28;20187;-38
2023/11/11 04:29:17;;;;;;;1.73;1.30;;;6.00;98.50;;;;;;5016587;28;20172;-39
2023/11/11 04:31:42;;;;;;;1.97;1.17;;;6.00;33.60;;;;;;5014570;28;20430;-39
2023/11/11 04:34:09;;;;;;;1.50;1.10;;;6.00;19.00;;;;;;5014607;28;20184;-40
2023/11/11 04:36:36;;;;;;;1.80;1.20;;;6.00;29.30;;;;;;5014310;28;20281;-38
2023/11/11 04:39:01;;;;;;;2.70;1.03;;;6.00;18.40;;;;;;5015436;28;20422;-37
2023/11/11 04:41:31;;;;;;;1.50;1.10;;;6.00;1.00;;;;;;5014745;28;20617;-42
2023/11/11 04:43:57;;;;;;;1.40;1.17;;;6.00;10.80;;;;;;5014073;28;20207;-38
2023/11/11 04:46:22;;;;;;;1.23;1.10;;;6.10;1.00;;;;;;5014956;28;20426;-38
2023/11/11 04:48:48;;;;;;;1.47;1.00;;;6.10;1.00;;;;;;5014531;28;20191;-40
2023/11/11 04:51:13;;;;;;;1.30;1.07;;;6.10;1.00;;;;;;5015493;28;20282;-40
2023/11/11 04:53:40;;;;;;;1.50;1.10;;;6.10;1.00;;;;;;5016221;28;20210;-39
2023/11/11 04:56:06;;;;;;;2.10;1.20;;;6.00;1.00;;;;;;5019794;28;20179;-36
2023/11/11 04:58:31;;;;;;;3.00;1.50;;;6.00;5.20;;;;;;5020446;28;20846;-38
2023/11/11 05:00:57;;;;;;;2.20;1.40;;;6.00;23.90;;;;;;5019640;28;20553;-37
2023/11/11 05:03:23;;;;;;;2.30;1.70;;;6.00;56.60;;;;;;5019469;28;20211;-38
2023/11/11 05:05:49;;;;;;;1.77;1.40;;;6.00;47.20;;;;;;5019810;28;20426;-39
2023/11/11 05:08:14;;;;;;;1.50;1.30;;;6.00;81.30;;;;;;5017970;28;20246;-39
2023/11/11 05:10:40;;;;;;;1.80;1.53;;;6.00;99.90;;;;;;5018702;28;20301;-37
2023/11/11 05:13:09;;;;;;;3.33;1.70;;;6.00;99.90;;;;;;5019008;28;20285;-38
2023/11/11 05:15:47;;;;;;;2.20;1.53;;;5.90;99.90;;;;;;5018747;28;20282;-40
2023/11/11 05:18:13;;;;;;;1.80;1.60;;;5.90;99.90;;;;;;5017249;28;21019;-36
2023/11/11 05:20:41;;;;;;;3.23;1.73;;;5.90;99.90;;;;;;5017766;28;20700;-38
2023/11/11 05:23:09;;;;;;;4.10;2.00;;;5.90;99.90;;;;;;5018440;28;20222;-37
2023/11/11 05:25:35;;;;;;;2.67;2.10;;;5.90;99.90;;;;;;5017675;28;20718;-39
2023/11/11 05:28:01;;;;;;;1.97;1.77;;;5.80;99.90;;;;;;5017680;28;20532;-37
2023/11/11 05:30:27;;;;;;;3.00;2.17;;;5.90;99.90;;;;;;5016459;28;20946;-38
2023/11/11 05:32:53;;;;;;;3.30;2.13;;;5.90;99.90;;;;;;5016590;28;20460;-38
2023/11/11 05:35:20;;;;;;;3.20;2.23;;;5.90;99.90;;;;;;5016696;28;20414;-39
2023/11/11 05:37:45;;;;;;;2.13;1.93;;;5.80;99.90;;;;;;5017784;28;20194;-38
2023/11/11 05:40:17;;;;;;;2.13;1.80;;;5.90;99.90;;;;;;5014697;28;20438;-39
2023/11/11 05:42:49;;;;;;;4.10;2.10;;;5.80;99.90;;;;;;5015872;28;20222;-37
2023/11/11 05:45:17;;;;;;;4.20;2.60;;;5.80;99.90;;;;;;5017325;28;20449;-37
2023/11/11 05:47:46;;;;;;;4.00;2.03;;;5.80;99.90;;;;;;5016819;28;20556;-38
2023/11/11 05:50:11;;;;;;;3.47;2.87;;;5.80;99.90;;;;;;5015463;28;20442;-39
2023/11/11 05:52:38;;;;;;;2.90;2.20;;;5.80;99.90;;;;;;5014977;28;20508;-37
2023/11/11 05:55:08;;;;;;;2.60;2.40;;;5.70;99.90;;;;;;5015016;28;20495;-36
2023/11/11 05:57:35;;;;;;;3.97;2.50;;;5.70;99.90;;;;;;5014538;28;20465;-37
2023/11/11 06:00:02;;;;;;;3.83;2.60;;;5.70;99.90;;;;;;5017063;28;20434;-37
2023/11/11 06:02:27;;;;;;;2.00;1.80;;;5.80;99.90;;;;;;5015086;28;20707;-37
2023/11/11 06:04:53;;;;;;;3.07;2.57;;;5.70;99.90;;;;;;5017339;28;20509;-36
2023/11/11 06:07:20;;;;;;;3.53;2.43;;;5.70;99.90;;;;;;5016994;28;20191;-36
2023/11/11 06:09:46;;;;;;;2.27;2.07;;;5.70;99.90;;;;;;5016218;28;20230;-42
2023/11/11 06:12:13;;;;;;;3.37;2.40;;;5.70;99.90;;;;;;5014117;28;20461;-36
2023/11/11 06:14:38;;;;;;;3.07;2.60;;;5.70;99.90;;;;;;5014334;28;20808;-36
2023/11/11 06:17:04;;;;;;;5.50;2.20;;;5.70;99.90;;;;;;5014960;28;20672;-37
2023/11/11 06:19:30;;;;;;;8.40;2.60;;;5.60;99.90;;;;;;5013643;28;20512;-37
2023/11/11 06:21:56;;;;;;;3.40;2.40;;;5.60;99.90;;;;;;5015689;28;20201;-37
2023/11/11 06:24:21;;;;;;;2.80;2.10;;;5.60;99.90;;;;;;5016024;28;20430;-37
2023/11/11 06:26:47;;;;;;;3.47;2.23;;;5.60;99.90;;;;;;5015678;28;20186;-37
2023/11/11 06:29:12;;;;;;;4.30;2.20;;;5.60;99.90;;;;;;5016974;28;20175;-39
2023/11/11 06:31:38;;;;;;;2.30;1.87;;;5.60;99.90;;;;;;5015193;28;20187;-37
2023/11/11 06:34:04;;;;;;;1.67;1.50;;;5.60;99.90;;;;;;5014805;28;20231;-39
2023/11/11 06:36:30;;;;;;;3.07;2.10;;;5.60;99.90;;;;;;5015967;28;20546;-37
2023/11/11 06:38:56;;;;;;;3.83;1.40;;;5.60;99.90;;;;;;5015519;28;20733;-39
2023/11/11 06:41:25;;;;;;;2.10;1.37;;;5.60;99.90;;;;;;5014867;28;20572;-37
2023/11/11 06:43:51;;;;;;;1.40;1.20;;;5.60;97.10;;;;;;5015486;28;20539;-38
2023/11/11 06:46:16;;;;;;;2.27;1.30;;;5.60;57.40;;;;;;5017732;28;20431;-39
2023/11/11 06:48:42;;;;;;;1.67;1.37;;;5.60;63.50;;;;;;5017374;28;20576;-37
2023/11/11 06:51:08;;;;;;;3.17;1.30;;;5.60;69.30;;;;;;5016661;28;20213;-38
2023/11/11 06:53:34;;;;;;;1.40;1.10;;;5.60;18.20;;;;;;5016849;28;20290;-37
2023/11/11 06:56:02;;;;;;;1.20;0.80;;;5.50;10.00;;;;;;5017154;28;20429;-38
2023/11/11 06:58:28;;;;;;;3.53;1.10;;;5.50;1.00;;;;;;5015808;28;20438;-37
2023/11/11 07:00:53;;;;;;;1.30;0.80;;;5.50;1.00;;;;;;5012508;28;20908;-36
2023/11/11 07:03:20;;;;;;;1.40;1.10;;;5.50;1.00;;;;;;5013625;28;20253;-39
2023/11/11 07:05:46;;;;;;;1.27;1.00;;;5.40;1.00;;;;;;5012964;28;20454;-38
2023/11/11 07:08:11;;;;;;;1.50;1.00;;;5.40;1.00;;;;;;5013081;28;20346;-38
2023/11/11 07:10:37;;;;;;;1.87;1.07;;;5.40;14.70;;;;;;5012603;28;20210;-38
2023/11/11 07:13:03;;;;;;;1.70;1.20;;;5.50;1.00;;;;;;5014080;28;20458;-37
2023/11/11 07:15:29;;;;;;;1.40;1.00;;;5.50;1.00;;;;;;5014399;28;20441;-37
2023/11/11 07:17:55;;;;;;;1.50;1.13;;;5.50;1.00;;;;;;5012743;28;20656;-38
2023/11/11 07:20:21;;;;;;;1.60;1.40;;;5.50;1.00;;;;;;5013575;28;20176;-39
2023/11/11 07:22:50;;;;;;;2.37;1.57;;;5.60;1.00;;;;;;5013585;28;20214;-39
2023/11/11 07:25:16;;;;;;;1.40;1.30;;;5.60;1.00;;;;;;5015589;28;20517;-38
2023/11/11 07:27:42;;;;;;;2.63;1.67;;;5.60;1.00;;;;;;5015858;28;20801;-40
2023/11/11 07:30:12;;;;;;;3.70;1.50;;;5.50;1.00;;;;;;5016059;28;20278;-38
2023/11/11 07:32:38;;;;;;;2.20;1.60;;;5.50;1.00;;;;;;5014954;28;20414;-39
2023/11/11 07:35:10;;;;;;;3.67;1.80;;;5.60;1.00;;;;;;5014923;28;20785;-37
2023/11/11 07:37:36;;;;;;;3.67;2.20;;;5.60;1.00;;;;;;5015550;28;20577;-39
2023/11/11 07:40:03;;;;;;;1.80;1.30;;;5.60;1.00;;;;;;5015578;28;20595;-38
2023/11/11 07:42:29;;;;;;;2.27;2.07;;;5.60;1.00;;;;;;5015233;28;20282;-41
2023/11/11 07:44:55;;;;;;;3.00;1.80;;;5.60;1.00;;;;;;5014684;28;20422;-39
2023/11/11 07:47:21;;;;;;;1.97;1.53;;;5.60;1.00;;;;;;5015098;28;20653;-39
2023/11/11 07:49:47;;;;;;;2.33;1.60;;;5.70;1.00;;;;;;5029312;28;20442;-38
2023/11/11 07:52:13;;;;;;;1.80;1.50;;;5.80;1.00;;;;;;5014602;28;20434;-37
2023/11/11 07:54:39;;;;;;;2.63;2.17;;;5.80;1.00;;;;;;5014502;28;20712;-39
2023/11/11 07:57:07;;;;;;;4.53;2.40;;;5.80;1.00;;;;;;5013435;28;20366;-39
2023/11/11 07:59:35;;;;;;;2.87;2.20;;;5.90;1.00;;;;;;5012754;28;20190;-45
2023/11/11 08:02:01;;;;;;;2.87;1.93;;;6.00;1.00;;;;;;5012173;28;20855;-39
2023/11/11 08:04:27;;;;;;;3.40;2.53;;;6.20;1.00;;;;;;5015292;28;20430;-38
2023/11/11 08:06:52;;;;;;;3.00;2.30;;;6.40;99.90;;;;;;5014955;28;20504;-39
2023/11/11 08:09:19;;;;;;;4.80;3.43;;;6.60;1.00;;;;;;5015836;28;20313;-40
2023/11/11 08:11:44;;;;;;;2.10;1.90;;;6.70;1.00;;;;;;5014343;28;20199;-38
2023/11/11 08:14:10;;;;;;;4.20;2.03;;;6.70;1.00;;;;;;5015913;28;20513;-38
2023/11/11 08:16:36;;;;;;;2.47;1.93;;;6.70;1.00;;;;;;5015308;28;20274;-38
2023/11/11 08:19:04;;;;;;;2.33;1.97;;;6.80;1.00;;;;;;5013459;28;20579;-40
2023/11/11 08:21:32;;;;;;;3.30;2.43;;;6.80;1.00;;;;;;5012773;28;20198;-39
2023/11/11 08:24:04;;;;;;;3.20;2.93;;;6.70;1.00;;;;;;5010882;28;20811;-40
2023/11/11 08:26:29;;;;;;;2.87;2.20;;;6.60;1.00;;;;;;5012874;28;20410;-39
2023/11/11 08:28:55;;;;;;;3.07;2.20;;;6.50;11.20;;;;;;5014518;28;20449;-40
2023/11/11 08:31:21;;;;;;;3.47;2.27;;;6.40;99.90;;;;;;5015574;28;20647;-39
2023/11/11 08:33:46;;;;;;;3.33;2.40;;;6.30;99.90;;;;;;5017919;28;20198;-40
2023/11/11 08:36:12;;;;;;;4.07;2.40;;;6.20;99.90;;;;;;5015762;28;20442;-38
2023/11/11 08:38:38;;;;;;;3.73;3.00;;;6.20;99.90;;;;;;5014106;28;20186;-40
2023/11/11 08:41:03;;;;;;;2.87;2.13;;;6.20;99.90;;;;;;5013604;28;20182;-39
2023/11/11 08:43:29;;;;;;;2.10;1.90;;;6.30;99.90;;;;;;5029330;28;20226;-37
2023/11/11 08:45:56;;;;;;;4.20;2.13;;;6.30;45.20;;;;;;5015731;28;20443;-38
2023/11/11 08:48:23;;;;;;;3.47;2.50;;;6.30;99.90;;;;;;4999931;28;20426;-39
2023/11/11 08:50:48;;;;;;;5.40;2.13;;;6.30;99.90;;;;;;5016419;28;20500;-39
2023/11/11 08:53:15;;;;;;;2.50;1.60;;;7.20;99.90;;;;;;5014318;28;20582;-37
2023/11/11 08:55:41;;;;;;;3.63;2.30;;;7.60;99.90;;;;;;5014775;28;20179;-38
2023/11/11 08:58:07;;;;;;;2.00;1.80;;;7.50;1.00;;;;;;5012195;28;20717;-40
2023/11/11 09:00:34;;;;;;;2.70;2.20;;;7.50;99.90;;;;;;5012303;28;20764;-39
2023/11/11 09:03:00;;;;;;;4.17;2.20;;;7.30;1.00;;;;;;5012733;28;20475;-37
2023/11/11 09:05:26;;;;;;;2.80;2.23;;;7.00;99.90;;;;;;5013005;28;20492;-38
2023/11/11 09:07:52;;;;;;;2.53;2.33;;;6.90;99.90;;;;;;5013220;28;20434;-40
2023/11/11 09:10:17;;;;;;;2.50;2.30;;;6.80;1.00;;;;;;5014462;28;20222;-38
2023/11/11 09:12:43;;;;;;;2.73;2.53;;;6.80;1.00;;;;;;5015276;28;20321;-38
2023/11/11 09:15:10;;;;;;;2.57;2.37;;;6.90;1.00;;;;;;5016915;28;20179;-37
2023/11/11 09:17:37;;;;;;;2.80;1.73;;;6.80;1.00;;;;;;5014406;28;20184;-39
2023/11/11 09:20:07;;;;;;;3.10;2.83;;;6.90;1.00;;;;;;5015510;28;20528;-40
2023/11/11 09:22:34;;;;;;;2.87;2.63;;;6.90;1.00;;;;;;5017911;28;20528;-37
2023/11/11 09:24:59;;;;;;;2.10;1.83;;;6.80;1.00;;;;;;5032511;28;20449;-38
2023/11/11 09:27:25;;;;;;;1.70;1.40;;;6.70;1.00;;;;;;5017366;28;20669;-39
2023/11/11 09:29:53;;;;;;;2.20;1.57;;;6.50;1.00;;;;;;5014818;28;20180;-40
2023/11/11 09:32:19;;;;;;;3.63;1.77;;;6.50;92.50;;;;;;5014802;28;20573;-41
2023/11/11 09:34:48;;;;;;;1.97;1.70;;;6.40;99.90;;;;;;5014971;28;20426;-37
2023/11/11 09:37:13;;;;;;;3.10;2.00;;;6.40;99.90;;;;;;5015854;28;20931;-38
2023/11/11 09:39:39;;;;;;;1.93;1.77;;;7.90;1.00;;;;;;5016108;28;20778;-39
2023/11/11 09:42:07;;;;;;;4.10;1.97;;;10.10;99.90;;;;;;5014982;28;20553;-40
2023/11/11 09:44:32;;;;;;;1.60;1.40;;;11.70;51.70;;;;;;5015023;28;20304;-39
2023/11/11 09:46:59;;;;;;;2.60;1.90;;;12.70;1.00;;;;;;5016271;28;20496;-42
2023/11/11 09:49:27;;;;;;;1.63;1.40;;;13.90;99.90;;;;;;5014449;28;20566;-38
2023/11/11 09:51:54;;;;;;;2.13;1.50;;;13.20;26.10;;;;;;5014589;28;20418;-40
2023/11/11 09:54:20;;;;;;;2.80;1.50;;;12.00;5.70;;;;;;5013856;28;20414;-40
2023/11/11 09:56:47;;;;;;;2.13;1.40;;;10.90;26.60;;;;;;5016018;28;20456;-40
2023/11/11 09:59:14;;;;;;;1.50;1.40;;;10.60;99.90;;;;;;5015742;28;20669;-40
2023/11/11 10:01:42;;;;;;;2.40;1.70;;;10.40;99.90;;;;;;5015113;28;20559;-43
2023/11/11 10:04:09;;;;;;;2.23;1.63;;;11.90;1.00;;;;;;5014050;28;20544;-39
2023/11/11 10:06:35;;;;;;;3.03;2.40;;;14.10;99.90;;;;;;5029358;28;20512;-39
2023/11/11 10:09:02;;;;;;;2.47;2.10;;;15.90;1.00;;;;;;5015311;28;20617;-40
2023/11/11 10:11:28;;;;;;;1.97;1.77;;;17.50;1.00;;;;;;5012268;28;20434;-37
2023/11/11 10:13:54;;;;;;;3.00;2.30;;;18.00;1.00;;;;;;5013646;28;20436;-36
2023/11/11 10:16:25;;;;;;;3.50;1.50;;;17.70;1.00;;;;;;5017771;28;20427;-51
2023/11/11 10:18:58;;;;;;;2.03;1.50;;;16.60;1.00;;;;;;5016472;28;20442;-38
2023/11/11 10:21:24;;;;;;;2.13;1.70;;;14.70;1.00;;;;;;5016162;28;20410;-38
2023/11/11 10:23:51;;;;;;;2.07;1.80;;;13.00;1.00;;;;;;5030504;28;20493;-38
2023/11/11 10:26:20;;;;;;;3.27;1.70;;;11.40;1.00;;;;;;5013789;28;20504;-39
2023/11/11 10:28:48;;;;;;;3.13;1.80;;;10.60;1.00;;;;;;5014764;28;20425;-36
2023/11/11 10:31:14;;;;;;;2.83;1.80;;;10.00;86.50;;;;;;5015451;28;20438;-39
2023/11/11 10:33:40;;;;;;;2.40;1.50;;;9.40;99.90;;;;;;5014270;28;20498;-45
2023/11/11 10:36:09;;;;;;;3.60;1.70;;;8.90;1.00;;;;;;5012124;28;20418;-37
2023/11/11 10:38:34;;;;;;;4.03;3.63;;;8.70;1.00;;;;;;5012611;28;20199;-38
2023/11/11 10:41:01;;;;;;;6.23;4.37;;;8.70;99.90;;;;;;5013476;28;20832;-36
2023/11/11 10:43:26;;;;;;;2.67;1.80;;;9.40;99.90;;;;;;5013421;28;20221;-39
2023/11/11 10:45:53;;;;;;;2.40;2.20;;;9.80;1.00;;;;;;5015182;28;21025;-38
2023/11/11 10:48:19;;;;;;;2.53;1.63;;;9.90;1.00;;;;;;5015362;28;20262;-37
2023/11/11 10:50:45;;;;;;;2.87;1.93;;;9.70;1.00;;;;;;4995706;28;20442;-38
2023/11/11 10:53:13;;;;;;;2.17;1.80;;;10.00;1.00;;;;;;5012490;28;20449;-39
2023/11/11 10:55:38;;;;;;;2.00;1.70;;;11.30;99.90;;;;;;5014018;28;20792;-39
2023/11/11 10:58:07;;;;;;;2.83;1.73;;;11.70;99.90;;;;;;5012050;28;20716;-38
2023/11/11 11:00:36;;;;;;;2.37;1.53;;;11.90;35.10;;;;;;5013142;28;20439;-39
2023/11/11 11:03:02;;;;;;;2.50;1.60;;;12.00;14.60;;;;;;5016055;28;20462;-39
2023/11/11 11:05:36;;;;;;;2.17;1.60;;;11.30;1.00;;;;;;5029593;28;20685;-38
2023/11/11 11:08:35;;;;;;;2.63;2.40;;;10.40;16.50;;;;;;5014875;28;20434;-37
2023/11/11 11:11:37;;;;;;;3.80;2.03;;;10.10;63.20;;;;;;5019223;28;20467;-39
2023/11/11 11:14:28;;;;;;;2.37;1.93;;;9.80;99.90;;;;;;5033925;28;20440;-40
2023/11/11 11:16:55;;;;;;;3.27;2.20;;;10.10;90.40;;;;;;5000199;28;20421;-37
2023/11/11 11:19:21;;;;;;;2.93;1.97;;;10.20;58.10;;;;;;5031304;28;20714;-37
2023/11/11 11:21:51;;;;;;;2.00;1.40;;;10.20;25.70;;;;;;5014349;28;20425;-39
2023/11/11 11:24:17;;;;;;;1.87;1.57;;;10.10;19.90;;;;;;5032248;28;20238;-38
2023/11/11 11:26:42;;;;;;;2.50;1.70;;;9.90;24.30;;;;;;5015715;28;20430;-38
2023/11/11 11:29:17;;;;;;;3.50;1.70;;;9.80;6.20;;;;;;5015445;28;20440;-39
2023/11/11 11:32:07;;;;;;;3.50;1.90;;;9.70;2.90;;;;;;5033802;28;20175;-38
2023/11/11 11:34:37;;;;;;;1.60;1.40;;;9.50;13.00;;;;;;5030605;28;20577;-39
2023/11/11 11:37:03;;;;;;;2.03;1.40;;;10.00;21.90;;;;;;5031869;28;20742;-38
2023/11/11 11:39:56;;;;;;;1.77;1.33;;;11.40;1.00;;;;;;5033741;28;20456;-38
2023/11/11 11:42:24;;;;;;;2.00;1.40;;;13.50;1.00;;;;;;5033020;28;20459;-40
2023/11/11 11:44:58;;;;;;;3.00;1.57;;;15.80;1.00;;;;;;5034177;28;20474;-39
2023/11/11 11:47:29;;;;;;;1.73;1.47;;;16.20;1.00;;;;;;5033187;28;20788;-38
2023/11/11 11:49:55;;;;;;;2.83;1.80;;;16.90;1.00;;;;;;5032729;28;20424;-39
2023/11/11 11:52:24;;;;;;;1.90;1.57;;;17.60;1.00;;;;;;5033231;28;20429;-38
2023/11/11 11:54:51;;;;;;;3.27;1.77;;;17.40;1.00;;;;;;5034582;28;20432;-39
2023/11/11 11:57:17;;;;;;;1.50;1.07;;;17.30;1.00;;;;;;5014506;28;20421;-39
2023/11/11 11:59:44;;;;;;;2.33;1.40;;;17.10;1.00;;;;;;5034166;28;20425;-39
2023/11/11 12:02:11;;;;;;;2.43;1.30;;;18.30;1.00;;;;;;5035179;28;20342;-39
2023/11/11 12:04:40;;;;;;;2.13;1.20;;;17.80;1.00;;;;;;5032511;28;20452;-39
2023/11/11 12:07:09;;;;;;;1.50;1.00;;;17.40;1.00;;;;;;5033046;28;20520;-41
2023/11/11 12:09:35;;;;;;;2.10;1.40;;;16.40;1.00;;;;;;5030896;28;20898;-39
2023/11/11 12:12:10;;;;;;;1.67;1.00;;;16.00;1.00;;;;;;5014578;28;20429;-37
2023/11/11 12:14:36;;;;;;;1.73;1.57;;;16.20;1.00;;;;;;5033152;28;20416;-38
2023/11/11 12:17:03;;;;;;;2.20;1.57;;;15.90;1.00;;;;;;5015056;28;20488;-38
2023/11/11 12:19:34;;;;;;;2.53;1.50;;;14.60;1.00;;;;;;5015856;28;20435;-38
2023/11/11 12:22:01;;;;;;;1.83;1.30;;;13.30;1.00;;;;;;5034309;28;20425;-38
2023/11/11 12:24:29;;;;;;;1.57;1.30;;;12.20;1.00;;;;;;5032523;28;20557;-37
2023/11/11 12:26:58;;;;;;;2.63;1.70;;;11.30;1.00;;;;;;5033513;28;20416;-38
2023/11/11 12:29:24;;;;;;;1.93;1.40;;;11.10;1.00;;;;;;5033736;28;20780;-37
2023/11/11 12:31:51;;;;;;;2.37;1.30;;;12.30;1.00;;;;;;5032815;28;20498;-39
2023/11/11 12:34:18;;;;;;;2.27;1.00;;;13.50;1.00;;;;;;5031018;28;20187;-37
2023/11/11 12:36:45;;;;;;;1.60;0.90;;;14.40;1.00;;;;;;5015518;28;20425;-38
2023/11/11 12:39:14;;;;;;;1.57;1.03;;;14.60;1.00;;;;;;5031136;28;20703;-40
2023/11/11 12:41:41;;;;;;;2.43;1.00;;;14.80;1.00;;;;;;5031539;28;20787;-38
2023/11/11 12:44:08;;;;;;;1.80;1.27;;;15.30;1.00;;;;;;5031266;28;20469;-38
2023/11/11 12:46:43;;;;;;;3.50;1.73;;;14.30;1.00;;;;;;5030651;28;20435;-38
2023/11/11 12:49:13;;;;;;;1.43;1.20;;;14.60;1.00;;;;;;5033003;28;20427;-37
2023/11/11 12:51:39;;;;;;;8.20;2.40;;;15.40;1.00;;;;;;5016361;28;20448;-36
2023/11/11 12:54:05;;;;;;;3.47;2.03;;;16.00;1.00;;;;;;5016855;28;20425;-37
2023/11/11 12:56:32;;;;;;;4.50;2.00;;;17.50;1.00;;;;;;5034372;28;20426;-38
2023/11/11 12:59:11;;;;;;;2.20;1.43;;;17.20;1.00;;;;;;5033038;28;20429;-38